Historyczne dane pomiarowe

Dodano dane terminowe – wersja testowa.

Dane z okresu 1951-2019

Wersja bazy: 1.32 [2019-02-07, lista zmian], aktualizacja planowana na 2019-03-07

Dane meteo z obszaru Polski uzyskane na podstawie danych udostępnionych przez Instytut Meteorologii i Gospodarki Wodnej – Państwowy Instytut Badawczy.

 

Wybierz Datę:    

       

TemperaturaWilgotnośćWiatrCiśnienieOpadyŚniegCzas trwania zjawisk
 Stacja t tx tn tng RH VA  wxwx mslp ppp RRR   cm mm wxwxwxwxwxwxwx
1985-01-14-13.3-11.6-14.9-17.5 82.0- 8.0 1.7---- 0.8-- 25---------
1985-01-15-11.9 -7.6-16.2-22.5 77.3- 7.3 2.3---- 0.0-- 26---------
1985-01-16-12.7 -8.8-15.9-22.4 76.5- 8.0 2.0---- 0.0-- 25---------
1985-01-17-13.1 -5.5-20.0-24.4 75.8- 8.0 1.7---- 0.0-- 24---------
1985-01-18 -4.7 -0.7-12.2-19.5 51.5- 8.0 3.7---- 0.0-- 24---------
1985-01-19 -8.4 -2.7-12.8-20.9 65.8- 4.0 1.3---- 0.0-- 24---------
1985-01-20-11.2 -6.7-14.9-21.6 78.8- 5.0 1.3---- 0.0-- 24---------
1985-01-21 -4.0 -2.7-13.9-20.0 72.8- 8.0 11.7---- 0.0-- 24---------
1985-01-22 0.5 3.1 -4.4 -6.1 81.3- 8.0 8.3---- 0.0-- 23---------
1985-01-23 2.3 3.8 0.5 -1.6 86.8- 8.0 4.7---- 1.3-- 20---------
1985-01-24 -1.1 3.6 -4.6 -4.1 78.0- 8.0 4.0---- 1.8-- 8---------
1985-01-25 -2.2 1.4 -7.8 -9.3 63.0- 8.0 6.7---- 0.0-- 10---------
1985-01-26 0.9 2.3 -0.6 -3.3 67.3- 8.0 8.7---- 0.0-- 8---------
1985-01-27 0.4 3.5 -3.3 -3.7 81.0- 8.0 2.7---- 0.1-- 5---------
1985-01-28 -3.7 -1.9 -6.2-13.5 79.8- 5.7 2.0---- 0.1-- 4---------
1985-01-29 -5.5 0.3-10.1-18.0 72.3- 4.7 7.3---- 0.0-- 4---------
1985-01-30 -0.2 4.1 -2.1 -4.3 69.0- 6.3 6.7---- 1.1-- 4---------
1985-01-31 0.1 4.2 -3.4 -8.3 81.5- 6.0 5.0---- 2.1-- 4---------
1985-02-01 4.3 7.2 1.4 -0.6 73.8- 7.3 5.3---- 0.9-- 2---------
1985-02-02 5.1 7.6 1.4 0.3 63.5- 7.3 13.0---- 2.6-- 2---------
1985-02-03 -1.9 5.5 -5.8 -6.5 64.0- 8.0 19.0---- 0.0-- 2---------
1985-02-04 -5.4 -3.1 -6.7 -7.3 58.8- 6.7 8.3---- 0.0-- 2---------
1985-02-05 -2.0 1.1 -5.2 -9.0 68.3- 8.0 3.0---- 3.8-- 2---------
1985-02-06 1.1 2.3 0.1 -0.1 87.0- 8.0 2.3---- 0.9------------
1985-02-07 -3.3 1.7 -6.1 -7.1 73.5- 8.0 4.7---- 0.6------------
1985-02-08 -9.2 -6.1-10.6-13.0 68.8- 6.0 1.7---- 1.9------------
1985-02-09 -8.4 -6.4-11.0-12.5 85.3- 8.0 2.0---- 3.5-- 3---------
1985-02-10-12.3 -6.4-13.8-14.1 80.3- 8.0 5.3---- 0.7-- 7---------
1985-02-11-17.9-13.4-19.1-22.0 74.8- 8.0 3.0---- 0.0-- 8---------
1985-02-12-20.2-17.1-24.7-29.5 67.3- 6.0 1.3---- 0.0-- 8---------
169.2 ms

 

Źródłem pochodzenia danych jest Instytut Meteorologii i Gospodarki Wodnej – Państwowy Instytut Badawczy. Dane Instytutu Meteorologii i Gospodarki Wodnej – Państwowego Instytutu Badawczego zostały przetworzone.

Dane źródłowe można odnaleźć na stronie https://dane.imgw.pl